Los Angeles, California
Current Conditions -  °F | °C
As of 12:47 AM on Wednesday 28 Jan 2015 (Local Time) from KCQT Reporting Station
Clear Clear  
Wind Chill: 59°   Ceiling: Unl
Heat Index: 59°   Visibility: 10mi
Dew Point: 48°   Wind: 3mph
Humidity: 67%   Direction: 20°NNE
Pressure: 30.17"   Gusts: NA
Location:  34.05°N, 118.24°W
Report Text: KCQT 280847Z AUTO 02003KT 10SM CLR 15/09 A3017 RMK AO2 SLP214 T01500089 53001 $
Loading
Personal Weather Stations






























Interactive Weather Map New forecast layout! Learn more

10-Day Weather Forecast

Advertisements
Track Severe Weather on mobile